createdAt,value
2023-02-27T00:00:22.263Z,4.57
2023-02-27T00:03:25.011Z,5.90
2023-02-27T00:06:28.416Z,4.85
2023-02-27T00:09:31.270Z,4.65
2023-02-27T00:12:38.029Z,8.55
2023-02-27T00:15:41.103Z,4.12
2023-02-27T00:18:43.621Z,4.87
2023-02-27T00:21:46.680Z,3.65
2023-02-27T00:24:49.055Z,5.75
2023-02-27T00:27:52.992Z,4.12
2023-02-27T00:30:55.833Z,5.20
2023-02-27T00:33:59.018Z,4.35
2023-02-27T00:37:01.480Z,5.35
2023-02-27T00:40:08.024Z,5.07
2023-02-27T00:43:10.479Z,7.55
2023-02-27T00:46:13.452Z,5.97
2023-02-27T00:49:15.891Z,6.53
2023-02-27T00:52:21.028Z,6.57
2023-02-27T00:55:24.537Z,5.47
2023-02-27T00:58:28.619Z,8.55
2023-02-27T01:01:31.214Z,4.80
2023-02-27T01:04:34.180Z,5.85
2023-02-27T01:07:37.700Z,5.93
2023-02-27T01:10:40.502Z,7.60
2023-02-27T01:13:44.323Z,9.27
2023-02-27T01:16:47.095Z,4.43
2023-02-27T01:19:50.580Z,5.28
2023-02-27T01:22:53.469Z,5.15
2023-02-27T01:25:56.470Z,6.93
2023-02-27T01:28:59.216Z,14.10
2023-02-27T01:32:01.905Z,7.95
2023-02-27T01:35:05.081Z,4.72
2023-02-27T01:38:07.922Z,6.30
2023-02-27T01:41:10.867Z,5.10
2023-02-27T01:44:14.656Z,7.00
2023-02-27T01:47:18.273Z,6.40
2023-02-27T01:50:20.797Z,6.90
2023-02-27T01:53:26.236Z,5.20
2023-02-27T01:56:31.507Z,10.00
2023-02-27T01:59:35.958Z,4.93
2023-02-27T02:02:42.400Z,5.50
2023-02-27T02:05:47.202Z,4.95
2023-02-27T02:08:53.343Z,2.90
2023-02-27T02:11:57.911Z,5.62
2023-02-27T02:15:01.003Z,4.82
2023-02-27T02:18:11.633Z,4.72
2023-02-27T02:21:29.659Z,7.70
2023-02-27T02:25:00.201Z,4.18
2023-02-27T02:28:24.602Z,5.07
2023-02-27T02:31:44.391Z,4.72
2023-02-27T02:35:22.824Z,7.80
2023-02-27T02:38:55.823Z,4.32
2023-02-27T02:42:21.413Z,5.22
2023-02-27T02:45:35.511Z,7.47
2023-02-27T02:48:53.194Z,4.35
2023-02-27T02:52:07.920Z,5.07
2023-02-27T02:55:18.461Z,4.70
2023-02-27T02:58:34.086Z,5.20
2023-02-27T03:01:44.685Z,7.43
2023-02-27T03:04:58.024Z,4.05
2023-02-27T03:08:07.147Z,4.95
2023-02-27T03:11:09.864Z,5.97
2023-02-27T03:14:34.740Z,6.97
2023-02-27T03:18:03.494Z,5.85
2023-02-27T03:21:13.687Z,5.15
2023-02-27T03:24:25.873Z,6.95
2023-02-27T03:27:35.251Z,5.55
2023-02-27T03:31:08.325Z,5.05
2023-02-27T03:34:32.971Z,3.60
2023-02-27T03:37:51.773Z,4.97
2023-02-27T03:41:03.491Z,3.80
2023-02-27T03:44:20.066Z,5.87
2023-02-27T03:47:23.423Z,5.10
2023-02-27T03:50:25.982Z,6.05
2023-02-27T03:53:43.830Z,5.03
2023-02-27T03:56:55.989Z,5.80
2023-02-27T04:00:00.040Z,4.50
2023-02-27T04:03:02.778Z,3.10
2023-02-27T04:06:26.141Z,5.15
2023-02-27T04:09:50.929Z,3.40
2023-02-27T04:13:39.899Z,6.22
2023-02-27T04:17:08.267Z,4.30
2023-02-27T04:20:39.044Z,8.32
2023-02-27T04:27:00.527Z,4.25
2023-02-27T04:30:24.631Z,4.72
2023-02-27T04:33:48.233Z,4.47
2023-02-27T04:37:02.667Z,5.68
2023-02-27T04:40:19.119Z,3.37
2023-02-27T04:43:24.432Z,6.00
2023-02-27T04:46:29.715Z,6.57
2023-02-27T04:49:46.384Z,4.90
2023-02-27T04:52:57.317Z,3.15
2023-02-27T04:56:05.993Z,4.22
2023-02-27T04:59:20.876Z,2.87
2023-02-27T05:02:33.089Z,5.75
2023-02-27T05:05:38.762Z,6.57
2023-02-27T05:08:58.393Z,4.03
2023-02-27T05:12:32.410Z,3.58
2023-02-27T05:15:44.567Z,5.00
2023-02-27T05:18:48.868Z,6.12
2023-02-27T05:22:40.891Z,4.93
2023-02-27T05:25:55.588Z,4.10
2023-02-27T05:29:11.756Z,2.65
2023-02-27T05:32:49.142Z,7.15
2023-02-27T05:40:39.530Z,7.47
2023-02-27T05:44:20.942Z,3.58
2023-02-27T05:50:37.800Z,6.20
2023-02-27T05:53:44.565Z,2.05
2023-02-27T05:56:51.316Z,2.78
2023-02-27T06:00:13.801Z,3.15
2023-02-27T06:03:17.666Z,5.85
2023-02-27T06:06:23.680Z,4.25
2023-02-27T06:09:28.514Z,3.75
2023-02-27T06:12:30.706Z,3.92
2023-02-27T06:15:33.866Z,4.60
2023-02-27T06:18:36.217Z,2.42
2023-02-27T06:21:39.316Z,4.30
2023-02-27T06:24:41.856Z,2.60
2023-02-27T06:27:44.545Z,3.12
2023-02-27T06:30:47.260Z,5.95
2023-02-27T06:33:51.225Z,2.60
2023-02-27T06:36:53.602Z,3.08
2023-02-27T06:39:57.147Z,2.92
2023-02-27T06:42:59.759Z,4.50
2023-02-27T06:46:02.853Z,5.47
2023-02-27T06:49:05.428Z,5.37
2023-02-27T06:52:08.100Z,7.00
2023-02-27T06:55:11.287Z,2.92
2023-02-27T06:58:14.468Z,3.90
2023-02-27T07:01:16.892Z,11.63
2023-02-27T07:04:20.723Z,3.97
2023-02-27T07:07:35.354Z,7.78
2023-02-27T07:10:40.263Z,3.33
2023-02-27T07:13:43.041Z,2.03
2023-02-27T07:16:54.017Z,5.20
2023-02-27T07:19:59.170Z,4.78
2023-02-27T07:23:04.571Z,2.72
2023-02-27T07:26:06.786Z,3.08
2023-02-27T07:29:09.820Z,3.85
2023-02-27T07:32:12.072Z,4.05
2023-02-27T07:35:15.986Z,6.07
2023-02-27T07:38:27.035Z,3.28
2023-02-27T07:41:37.950Z,6.15
2023-02-27T07:44:41.569Z,3.83
2023-02-27T07:47:45.463Z,3.72
2023-02-27T07:50:47.786Z,3.83
2023-02-27T07:53:50.550Z,4.12
2023-02-27T07:56:53.211Z,2.65
2023-02-27T07:59:55.765Z,4.22
2023-02-27T08:02:58.101Z,5.97
2023-02-27T08:06:02.440Z,6.28
2023-02-27T08:09:06.320Z,3.87
2023-02-27T08:12:09.171Z,3.30
2023-02-27T08:15:11.932Z,4.90
2023-02-27T08:18:14.871Z,4.07
2023-02-27T08:21:17.296Z,8.38
2023-02-27T08:24:21.709Z,5.20
2023-02-27T08:27:31.379Z,5.72
2023-02-27T08:30:34.428Z,4.72
2023-02-27T08:33:36.977Z,3.95
2023-02-27T08:36:42.746Z,8.25
2023-02-27T08:39:45.316Z,5.93
2023-02-27T08:42:48.374Z,4.85
2023-02-27T08:45:51.573Z,7.37
2023-02-27T08:48:56.672Z,7.35
2023-02-27T08:51:59.320Z,5.68
2023-02-27T08:55:02.359Z,3.95
2023-02-27T08:58:04.709Z,8.88
2023-02-27T09:01:07.395Z,7.20
2023-02-27T09:04:10.214Z,5.03
2023-02-27T09:07:13.638Z,9.27
2023-02-27T09:10:16.310Z,13.98
2023-02-27T09:13:19.788Z,5.78
2023-02-27T09:16:22.982Z,5.53
2023-02-27T09:19:26.492Z,6.97
2023-02-27T09:22:28.891Z,7.95
2023-02-27T09:25:34.220Z,14.25
2023-02-27T09:28:37.553Z,9.10
2023-02-27T09:31:40.393Z,4.53
2023-02-27T09:34:42.634Z,6.28
2023-02-27T09:37:45.298Z,4.82
2023-02-27T09:40:50.496Z,4.50
2023-02-27T09:43:55.432Z,5.80
2023-02-27T09:47:00.529Z,9.13
2023-02-27T09:50:09.313Z,6.53
2023-02-27T09:53:22.683Z,8.93
2023-02-27T09:56:32.398Z,5.95
2023-02-27T09:59:52.533Z,5.45
2023-02-27T10:03:22.996Z,6.18
2023-02-27T10:06:41.305Z,8.65
2023-02-27T10:10:00.481Z,6.87
2023-02-27T10:13:14.931Z,8.13
2023-02-27T10:16:28.756Z,6.50
2023-02-27T10:19:37.441Z,5.60
2023-02-27T10:22:45.117Z,3.65
2023-02-27T10:25:50.872Z,13.10
2023-02-27T10:28:53.210Z,7.30
2023-02-27T10:32:13.339Z,4.65
2023-02-27T10:35:32.814Z,17.05
2023-02-27T10:38:44.497Z,10.45
2023-02-27T10:41:47.635Z,5.78
2023-02-27T10:44:53.673Z,6.65
2023-02-27T10:47:57.055Z,5.00
2023-02-27T10:51:26.413Z,6.50
2023-02-27T10:54:28.919Z,8.27
2023-02-27T10:57:43.034Z,6.43
2023-02-27T11:00:52.898Z,3.87
2023-02-27T11:03:57.180Z,7.03
2023-02-27T11:07:01.758Z,8.57
2023-02-27T11:10:23.225Z,6.65
2023-02-27T11:13:28.411Z,8.77
2023-02-27T11:16:52.953Z,6.40
2023-02-27T11:19:56.633Z,8.18
2023-02-27T11:23:26.155Z,7.22
2023-02-27T11:26:39.148Z,7.93
2023-02-27T11:30:22.559Z,7.15
2023-02-27T11:33:26.918Z,7.22
2023-02-27T11:37:00.663Z,6.60
2023-02-27T11:40:09.007Z,6.32
2023-02-27T11:43:21.762Z,6.78
2023-02-27T11:46:46.067Z,11.35
2023-02-27T11:49:51.505Z,7.03
2023-02-27T11:53:17.825Z,8.32
2023-02-27T11:56:31.383Z,5.30
2023-02-27T11:59:47.968Z,6.15
2023-02-27T12:03:25.185Z,7.00
2023-02-27T12:06:49.444Z,7.97
2023-02-27T12:09:57.778Z,7.68
2023-02-27T12:13:07.170Z,6.10
2023-02-27T12:16:42.460Z,5.62
2023-02-27T12:19:50.786Z,6.53
2023-02-27T12:22:54.772Z,6.80
2023-02-27T12:26:06.040Z,5.75
2023-02-27T12:29:49.529Z,5.32
2023-02-27T12:32:57.807Z,6.85
2023-02-27T12:36:03.137Z,7.93
2023-02-27T12:39:06.698Z,5.57
2023-02-27T12:42:21.296Z,6.60
2023-02-27T12:45:45.581Z,11.35
2023-02-27T12:49:22.047Z,6.15
2023-02-27T12:52:49.676Z,11.07
2023-02-27T12:56:04.249Z,4.65
2023-02-27T12:59:30.076Z,7.78
2023-02-27T13:02:51.062Z,6.50
2023-02-27T13:05:54.662Z,4.93
2023-02-27T13:09:04.771Z,5.82
2023-02-27T13:12:07.815Z,6.87
2023-02-27T13:15:23.619Z,5.57
2023-02-27T13:18:39.678Z,11.32
2023-02-27T13:21:55.328Z,6.57
2023-02-27T13:25:02.030Z,5.87
2023-02-27T13:28:15.430Z,7.78
2023-02-27T13:31:27.419Z,7.97
2023-02-27T13:34:42.712Z,7.80
2023-02-27T13:37:54.198Z,7.50
2023-02-27T13:40:56.668Z,5.25
2023-02-27T13:44:20.491Z,5.72
2023-02-27T13:47:43.277Z,6.97
2023-02-27T13:50:45.915Z,5.03
2023-02-27T13:53:48.325Z,8.65
2023-02-27T13:56:59.688Z,6.87
2023-02-27T14:00:08.988Z,7.95
2023-02-27T14:03:25.865Z,7.32
2023-02-27T14:06:29.830Z,7.87
2023-02-27T14:09:41.437Z,9.13
2023-02-27T14:12:46.454Z,8.27
2023-02-27T14:15:52.124Z,8.25
2023-02-27T14:18:58.526Z,11.60
2023-02-27T14:22:32.244Z,6.47
2023-02-27T14:25:39.427Z,8.30
2023-02-27T14:29:02.468Z,7.20
2023-02-27T14:32:09.009Z,9.75
2023-02-27T14:35:16.883Z,7.57
2023-02-27T14:38:21.528Z,8.20
2023-02-27T14:41:33.985Z,12.32
2023-02-27T14:44:41.823Z,7.25
2023-02-27T14:47:53.754Z,8.82
2023-02-27T14:50:58.093Z,5.78
2023-02-27T14:54:04.542Z,11.52
2023-02-27T14:57:07.994Z,11.00
2023-02-27T15:00:35.044Z,7.78
2023-02-27T15:03:47.917Z,10.57
2023-02-27T15:06:52.474Z,7.32
2023-02-27T15:09:58.388Z,12.68
2023-02-27T15:13:02.517Z,7.40
2023-02-27T15:16:23.576Z,13.75
2023-02-27T15:19:28.226Z,7.70
2023-02-27T15:22:39.763Z,8.15
2023-02-27T15:25:42.371Z,10.30
2023-02-27T15:28:45.130Z,8.70
2023-02-27T15:31:47.611Z,9.38
2023-02-27T15:34:50.738Z,8.13
2023-02-27T15:37:55.879Z,7.03
2023-02-27T15:41:00.460Z,9.80
2023-02-27T15:44:04.411Z,8.68
2023-02-27T15:47:10.350Z,10.00
2023-02-27T15:50:15.652Z,6.62
2023-02-27T15:53:24.600Z,14.00
2023-02-27T15:56:34.300Z,6.90
2023-02-27T15:59:41.986Z,8.45
2023-02-27T16:02:54.170Z,12.55
2023-02-27T16:05:57.872Z,13.62
2023-02-27T16:09:20.050Z,7.72
2023-02-27T16:12:38.045Z,11.30
2023-02-27T16:15:41.184Z,15.98
2023-02-27T16:18:46.889Z,7.43
2023-02-27T16:22:15.265Z,11.40
2023-02-27T16:25:19.339Z,6.82
2023-02-27T16:28:21.665Z,13.25
2023-02-27T16:31:31.050Z,9.80
2023-02-27T16:37:50.223Z,6.75
2023-02-27T16:40:52.728Z,7.45
2023-02-27T16:43:56.032Z,12.43
2023-02-27T16:47:02.217Z,9.75
2023-02-27T16:50:12.461Z,8.98
2023-02-27T16:53:16.908Z,8.18
2023-02-27T16:56:32.253Z,7.68
2023-02-27T16:59:41.144Z,8.43
2023-02-27T17:02:44.211Z,16.55
2023-02-27T17:05:48.639Z,10.93
2023-02-27T17:08:51.533Z,9.10
2023-02-27T17:11:55.229Z,7.50
2023-02-27T17:14:57.824Z,9.32
2023-02-27T17:18:00.445Z,10.60
2023-02-27T17:21:04.095Z,11.18
2023-02-27T17:24:06.993Z,13.18
2023-02-27T17:27:09.690Z,12.20
2023-02-27T17:30:15.738Z,13.95
2023-02-27T17:33:18.368Z,14.32
2023-02-27T17:36:22.353Z,12.00
2023-02-27T17:39:25.038Z,10.93
2023-02-27T17:42:27.432Z,14.60
2023-02-27T17:45:30.135Z,15.18
2023-02-27T17:48:32.869Z,16.45
2023-02-27T17:51:35.746Z,13.27
2023-02-27T17:54:38.416Z,17.40
2023-02-27T17:57:41.134Z,13.90
2023-02-27T18:00:43.342Z,15.82
2023-02-27T18:03:46.591Z,12.37
2023-02-27T18:06:50.548Z,16.83
2023-02-27T18:09:53.202Z,13.07
2023-02-27T18:12:55.468Z,12.65
2023-02-27T18:15:57.952Z,14.20
2023-02-27T18:19:03.468Z,19.65
2023-02-27T18:22:11.912Z,26.30
2023-02-27T18:25:15.844Z,15.05
2023-02-27T18:28:19.414Z,15.75
2023-02-27T18:31:27.855Z,22.58
2023-02-27T18:37:33.302Z,20.35
2023-02-27T18:40:36.039Z,17.12
2023-02-27T18:43:43.237Z,16.15
2023-02-27T18:46:46.268Z,16.75
2023-02-27T18:49:48.590Z,15.20
2023-02-27T18:52:51.693Z,13.68
2023-02-27T18:56:00.353Z,11.45
2023-02-27T18:59:05.186Z,10.63
2023-02-27T19:02:13.826Z,10.10
2023-02-27T19:05:16.961Z,11.10
2023-02-27T19:08:19.276Z,17.50
2023-02-27T19:11:26.329Z,13.90
2023-02-27T19:14:28.855Z,14.45
2023-02-27T19:17:31.453Z,13.23
2023-02-27T19:20:34.798Z,11.15
2023-02-27T19:23:38.853Z,9.15
2023-02-27T19:26:41.448Z,13.20
2023-02-27T19:29:44.136Z,12.73
2023-02-27T19:32:46.469Z,8.35
2023-02-27T19:35:49.740Z,10.18
2023-02-27T19:38:52.626Z,12.10
2023-02-27T19:41:56.515Z,9.63
2023-02-27T19:44:59.092Z,12.07
2023-02-27T19:48:01.874Z,8.07
2023-02-27T19:51:07.673Z,11.82
2023-02-27T19:54:15.460Z,12.45
2023-02-27T19:57:19.174Z,8.13
2023-02-27T20:00:23.458Z,15.93
2023-02-27T20:03:27.877Z,8.65
2023-02-27T20:06:33.739Z,16.17
2023-02-27T20:09:36.431Z,10.25
2023-02-27T20:12:38.666Z,12.27
2023-02-27T20:15:41.531Z,9.82
2023-02-27T20:18:44.242Z,9.60
2023-02-27T20:21:47.751Z,9.48
2023-02-27T20:24:50.082Z,11.23
2023-02-27T20:27:52.761Z,12.20
2023-02-27T20:30:55.486Z,11.10
2023-02-27T20:34:01.031Z,11.80
2023-02-27T20:37:03.689Z,11.12
2023-02-27T20:40:10.318Z,12.13
2023-02-27T20:43:12.641Z,11.68
2023-02-27T20:46:18.098Z,14.73
2023-02-27T20:49:21.980Z,15.93
2023-02-27T20:52:25.247Z,10.07
2023-02-27T20:55:27.627Z,10.40
2023-02-27T20:58:30.756Z,10.75
2023-02-27T21:01:33.811Z,11.68
2023-02-27T21:04:44.073Z,12.15
2023-02-27T21:07:46.815Z,9.60
2023-02-27T21:10:51.553Z,9.45
2023-02-27T21:13:55.132Z,10.70
2023-02-27T21:16:58.565Z,14.27
2023-02-27T21:20:06.684Z,10.13
2023-02-27T21:24:07.993Z,17.85
2023-02-27T21:27:10.370Z,12.75
2023-02-27T21:30:13.167Z,13.45
2023-02-27T21:33:15.720Z,8.15
2023-02-27T21:36:23.853Z,12.37
2023-02-27T21:39:28.552Z,14.02
2023-02-27T21:42:31.751Z,8.50
2023-02-27T21:45:36.695Z,9.38
2023-02-27T21:48:39.882Z,11.93
2023-02-27T21:51:42.681Z,9.55
2023-02-27T21:54:45.665Z,15.40
2023-02-27T21:57:48.239Z,8.88
2023-02-27T22:00:50.927Z,15.60
2023-02-27T22:03:54.281Z,9.82
2023-02-27T22:06:56.946Z,13.38
2023-02-27T22:09:59.656Z,10.02
2023-02-27T22:13:02.424Z,13.82
2023-02-27T22:16:09.484Z,11.65
2023-02-27T22:19:19.609Z,8.98
2023-02-27T22:22:25.836Z,10.07
2023-02-27T22:25:28.567Z,11.07
2023-02-27T22:28:32.894Z,7.68
2023-02-27T22:31:37.839Z,12.52
2023-02-27T22:34:40.506Z,9.70
2023-02-27T22:37:43.345Z,9.55
2023-02-27T22:40:46.251Z,12.52
2023-02-27T22:43:48.500Z,12.57
2023-02-27T22:46:51.312Z,9.05
2023-02-27T22:49:54.007Z,9.48
2023-02-27T22:52:56.881Z,9.18
2023-02-27T22:55:59.652Z,6.87
2023-02-27T22:59:03.085Z,8.90
2023-02-27T23:02:06.287Z,12.82
2023-02-27T23:05:09.750Z,11.00
2023-02-27T23:08:12.094Z,15.13
2023-02-27T23:11:16.040Z,10.43
2023-02-27T23:14:19.199Z,11.00
2023-02-27T23:17:21.997Z,13.13
2023-02-27T23:20:24.234Z,11.38
2023-02-27T23:23:28.281Z,12.15
2023-02-27T23:26:30.900Z,10.45
2023-02-27T23:29:33.422Z,11.88
2023-02-27T23:32:43.420Z,12.05
2023-02-27T23:35:46.567Z,12.80
2023-02-27T23:38:49.106Z,14.05
2023-02-27T23:41:51.717Z,12.98
2023-02-27T23:45:32.744Z,13.68
2023-02-27T23:48:36.222Z,13.10
2023-02-27T23:51:38.970Z,13.13
2023-02-27T23:54:41.558Z,15.55
2023-02-27T23:57:44.764Z,18.50
